sensor_id;sensor_type;location;lat;lon;timestamp;P1;durP1;ratioP1;P2;durP2;ratioP2
13255;SDS011;37913;48.370;10.930;2023-07-31T00:02:13;80.72;;;37.35;;
13255;SDS011;37913;48.370;10.930;2023-07-31T00:04:40;83.22;;;38.42;;
13255;SDS011;37913;48.370;10.930;2023-07-31T00:07:06;81.03;;;37.55;;
13255;SDS011;37913;48.370;10.930;2023-07-31T00:09:36;83.88;;;38.00;;
13255;SDS011;37913;48.370;10.930;2023-07-31T00:12:03;88.75;;;39.00;;
13255;SDS011;37913;48.370;10.930;2023-07-31T00:14:31;75.30;;;36.67;;
13255;SDS011;37913;48.370;10.930;2023-07-31T00:16:58;84.35;;;37.88;;
13255;SDS011;37913;48.370;10.930;2023-07-31T00:19:24;80.40;;;37.50;;
13255;SDS011;37913;48.370;10.930;2023-07-31T00:21:51;83.65;;;37.53;;
13255;SDS011;37913;48.370;10.930;2023-07-31T00:24:18;86.75;;;38.15;;
13255;SDS011;37913;48.370;10.930;2023-07-31T00:26:46;82.75;;;37.00;;
13255;SDS011;37913;48.370;10.930;2023-07-31T00:29:13;85.95;;;38.25;;
13255;SDS011;37913;48.370;10.930;2023-07-31T00:31:40;75.28;;;35.97;;
13255;SDS011;37913;48.370;10.930;2023-07-31T00:34:07;84.15;;;37.38;;
13255;SDS011;37913;48.370;10.930;2023-07-31T00:36:34;76.03;;;35.83;;
13255;SDS011;37913;48.370;10.930;2023-07-31T00:39:01;79.50;;;36.85;;
13255;SDS011;37913;48.370;10.930;2023-07-31T00:41:29;78.50;;;36.65;;
13255;SDS011;37913;48.370;10.930;2023-07-31T00:43:58;79.00;;;36.55;;
13255;SDS011;37913;48.370;10.930;2023-07-31T00:46:24;83.68;;;36.92;;
13255;SDS011;37913;48.370;10.930;2023-07-31T00:48:51;85.50;;;38.03;;
13255;SDS011;37913;48.370;10.930;2023-07-31T00:51:19;81.65;;;37.17;;
13255;SDS011;37913;48.370;10.930;2023-07-31T00:53:46;87.53;;;38.47;;
13255;SDS011;37913;48.370;10.930;2023-07-31T00:56:13;80.18;;;37.65;;
13255;SDS011;37913;48.370;10.930;2023-07-31T00:58:40;91.22;;;39.55;;
13255;SDS011;37913;48.370;10.930;2023-07-31T01:01:09;81.70;;;37.47;;
13255;SDS011;37913;48.370;10.930;2023-07-31T01:03:36;96.97;;;40.17;;
13255;SDS011;37913;48.370;10.930;2023-07-31T01:06:06;93.53;;;40.25;;
13255;SDS011;37913;48.370;10.930;2023-07-31T01:08:41;80.45;;;37.33;;
13255;SDS011;37913;48.370;10.930;2023-07-31T01:11:14;79.90;;;36.83;;
13255;SDS011;37913;48.370;10.930;2023-07-31T01:16:16;83.70;;;37.55;;
13255;SDS011;37913;48.370;10.930;2023-07-31T01:18:43;87.93;;;38.55;;
13255;SDS011;37913;48.370;10.930;2023-07-31T01:21:15;85.00;;;37.95;;
13255;SDS011;37913;48.370;10.930;2023-07-31T01:23:57;72.50;;;36.05;;
13255;SDS011;37913;48.370;10.930;2023-07-31T01:26:47;80.35;;;37.38;;
13255;SDS011;37913;48.370;10.930;2023-07-31T01:29:20;84.05;;;37.97;;
13255;SDS011;37913;48.370;10.930;2023-07-31T01:31:55;88.22;;;38.70;;
13255;SDS011;37913;48.370;10.930;2023-07-31T01:34:27;74.30;;;36.42;;
13255;SDS011;37913;48.370;10.930;2023-07-31T01:36:55;84.80;;;38.10;;
13255;SDS011;37913;48.370;10.930;2023-07-31T01:39:22;82.97;;;38.03;;
13255;SDS011;37913;48.370;10.930;2023-07-31T01:41:51;90.07;;;39.20;;
13255;SDS011;37913;48.370;10.930;2023-07-31T01:44:18;85.78;;;38.42;;
13255;SDS011;37913;48.370;10.930;2023-07-31T01:46:45;81.90;;;37.80;;
13255;SDS011;37913;48.370;10.930;2023-07-31T01:49:13;86.45;;;38.60;;
13255;SDS011;37913;48.370;10.930;2023-07-31T01:51:40;77.97;;;37.33;;
13255;SDS011;37913;48.370;10.930;2023-07-31T01:54:07;88.90;;;39.22;;
13255;SDS011;37913;48.370;10.930;2023-07-31T01:56:34;78.72;;;37.55;;
13255;SDS011;37913;48.370;10.930;2023-07-31T01:59:02;79.30;;;37.28;;
13255;SDS011;37913;48.370;10.930;2023-07-31T02:01:29;84.30;;;38.65;;
13255;SDS011;37913;48.370;10.930;2023-07-31T02:03:56;72.88;;;36.50;;
13255;SDS011;37913;48.370;10.930;2023-07-31T02:06:23;75.65;;;36.58;;
13255;SDS011;37913;48.370;10.930;2023-07-31T02:08:59;90.32;;;39.53;;
13255;SDS011;37913;48.370;10.930;2023-07-31T02:11:27;80.95;;;37.92;;
13255;SDS011;37913;48.370;10.930;2023-07-31T02:13:53;82.82;;;38.22;;
13255;SDS011;37913;48.370;10.930;2023-07-31T02:16:22;78.20;;;36.88;;
13255;SDS011;37913;48.370;10.930;2023-07-31T02:18:49;84.15;;;38.22;;
13255;SDS011;37913;48.370;10.930;2023-07-31T02:21:16;79.85;;;37.10;;
13255;SDS011;37913;48.370;10.930;2023-07-31T02:23:42;84.38;;;38.38;;
13255;SDS011;37913;48.370;10.930;2023-07-31T02:26:11;90.78;;;39.53;;
13255;SDS011;37913;48.370;10.930;2023-07-31T02:28:38;88.57;;;38.83;;
13255;SDS011;37913;48.370;10.930;2023-07-31T02:31:07;75.47;;;36.35;;
13255;SDS011;37913;48.370;10.930;2023-07-31T02:33:36;87.45;;;38.78;;
13255;SDS011;37913;48.370;10.930;2023-07-31T02:36:03;84.40;;;38.55;;
13255;SDS011;37913;48.370;10.930;2023-07-31T02:38:30;85.35;;;38.90;;
13255;SDS011;37913;48.370;10.930;2023-07-31T02:40:56;84.20;;;37.78;;
13255;SDS011;37913;48.370;10.930;2023-07-31T02:43:23;92.85;;;39.22;;
13255;SDS011;37913;48.370;10.930;2023-07-31T02:45:51;76.18;;;36.80;;
13255;SDS011;37913;48.370;10.930;2023-07-31T02:48:18;76.43;;;36.58;;
13255;SDS011;37913;48.370;10.930;2023-07-31T02:50:47;76.78;;;36.55;;
13255;SDS011;37913;48.370;10.930;2023-07-31T02:53:14;79.97;;;36.83;;
13255;SDS011;37913;48.370;10.930;2023-07-31T02:55:41;77.72;;;36.63;;
13255;SDS011;37913;48.370;10.930;2023-07-31T02:58:08;74.90;;;36.30;;
13255;SDS011;37913;48.370;10.930;2023-07-31T03:00:41;90.32;;;38.85;;
13255;SDS011;37913;48.370;10.930;2023-07-31T03:03:08;82.57;;;38.72;;
13255;SDS011;37913;48.370;10.930;2023-07-31T03:05:35;77.53;;;36.85;;
13255;SDS011;37913;48.370;10.930;2023-07-31T03:08:09;89.80;;;39.10;;
13255;SDS011;37913;48.370;10.930;2023-07-31T03:10:36;81.25;;;37.67;;
13255;SDS011;37913;48.370;10.930;2023-07-31T03:13:03;83.75;;;37.63;;
13255;SDS011;37913;48.370;10.930;2023-07-31T03:15:30;95.47;;;40.85;;
13255;SDS011;37913;48.370;10.930;2023-07-31T03:17:58;87.30;;;38.38;;
13255;SDS011;37913;48.370;10.930;2023-07-31T03:20:25;81.18;;;37.20;;
13255;SDS011;37913;48.370;10.930;2023-07-31T03:22:51;85.55;;;38.17;;
13255;SDS011;37913;48.370;10.930;2023-07-31T03:25:22;90.35;;;39.33;;
13255;SDS011;37913;48.370;10.930;2023-07-31T03:27:49;78.22;;;37.05;;
13255;SDS011;37913;48.370;10.930;2023-07-31T03:30:16;84.45;;;38.13;;
13255;SDS011;37913;48.370;10.930;2023-07-31T03:32:43;86.95;;;38.50;;
13255;SDS011;37913;48.370;10.930;2023-07-31T03:35:09;84.20;;;38.65;;
13255;SDS011;37913;48.370;10.930;2023-07-31T03:37:36;74.75;;;36.58;;
13255;SDS011;37913;48.370;10.930;2023-07-31T03:40:03;82.43;;;37.60;;
13255;SDS011;37913;48.370;10.930;2023-07-31T03:42:32;78.57;;;37.28;;
13255;SDS011;37913;48.370;10.930;2023-07-31T03:44:59;83.32;;;38.13;;
13255;SDS011;37913;48.370;10.930;2023-07-31T03:47:26;91.45;;;40.10;;
13255;SDS011;37913;48.370;10.930;2023-07-31T03:49:53;93.88;;;40.35;;
13255;SDS011;37913;48.370;10.930;2023-07-31T03:52:20;83.72;;;38.15;;
13255;SDS011;37913;48.370;10.930;2023-07-31T03:54:47;76.90;;;36.97;;
13255;SDS011;37913;48.370;10.930;2023-07-31T03:57:13;87.90;;;39.03;;
13255;SDS011;37913;48.370;10.930;2023-07-31T03:59:42;82.00;;;37.95;;
13255;SDS011;37913;48.370;10.930;2023-07-31T04:02:09;80.43;;;37.45;;
13255;SDS011;37913;48.370;10.930;2023-07-31T04:04:38;94.57;;;39.88;;
13255;SDS011;37913;48.370;10.930;2023-07-31T04:07:05;92.57;;;39.97;;
13255;SDS011;37913;48.370;10.930;2023-07-31T04:09:31;90.53;;;39.70;;
13255;SDS011;37913;48.370;10.930;2023-07-31T04:11:58;84.68;;;37.92;;
13255;SDS011;37913;48.370;10.930;2023-07-31T04:14:26;91.35;;;39.67;;
13255;SDS011;37913;48.370;10.930;2023-07-31T04:16:54;85.28;;;38.45;;
13255;SDS011;37913;48.370;10.930;2023-07-31T04:19:21;77.95;;;36.92;;
13255;SDS011;37913;48.370;10.930;2023-07-31T04:21:48;82.35;;;38.03;;
13255;SDS011;37913;48.370;10.930;2023-07-31T04:24:15;84.18;;;38.38;;
13255;SDS011;37913;48.370;10.930;2023-07-31T04:26:50;85.70;;;39.03;;
13255;SDS011;37913;48.370;10.930;2023-07-31T04:29:17;90.57;;;39.75;;
13255;SDS011;37913;48.370;10.930;2023-07-31T04:31:44;82.50;;;38.10;;
13255;SDS011;37913;48.370;10.930;2023-07-31T04:34:12;96.95;;;40.80;;
13255;SDS011;37913;48.370;10.930;2023-07-31T04:36:39;91.07;;;40.10;;
13255;SDS011;37913;48.370;10.930;2023-07-31T04:39:05;95.15;;;40.58;;
13255;SDS011;37913;48.370;10.930;2023-07-31T04:41:32;91.38;;;40.45;;
13255;SDS011;37913;48.370;10.930;2023-07-31T04:43:59;84.13;;;38.90;;
13255;SDS011;37913;48.370;10.930;2023-07-31T04:46:34;87.32;;;39.20;;
13255;SDS011;37913;48.370;10.930;2023-07-31T04:49:01;89.20;;;39.65;;
13255;SDS011;37913;48.370;10.930;2023-07-31T04:51:29;92.13;;;41.28;;
13255;SDS011;37913;48.370;10.930;2023-07-31T04:53:56;90.38;;;41.65;;
13255;SDS011;37913;48.370;10.930;2023-07-31T04:56:23;85.70;;;39.95;;
13255;SDS011;37913;48.370;10.930;2023-07-31T04:58:50;88.07;;;39.75;;
13255;SDS011;37913;48.370;10.930;2023-07-31T05:01:17;91.75;;;40.75;;
13255;SDS011;37913;48.370;10.930;2023-07-31T05:03:45;91.70;;;41.00;;
13255;SDS011;37913;48.370;10.930;2023-07-31T05:06:11;84.07;;;39.35;;
13255;SDS011;37913;48.370;10.930;2023-07-31T05:08:41;89.97;;;40.60;;
13255;SDS011;37913;48.370;10.930;2023-07-31T05:11:08;85.60;;;39.65;;
13255;SDS011;37913;48.370;10.930;2023-07-31T05:13:35;100.32;;;42.58;;
13255;SDS011;37913;48.370;10.930;2023-07-31T05:16:02;90.18;;;40.42;;
13255;SDS011;37913;48.370;10.930;2023-07-31T05:18:30;83.90;;;39.47;;
13255;SDS011;37913;48.370;10.930;2023-07-31T05:20:58;82.10;;;39.55;;
13255;SDS011;37913;48.370;10.930;2023-07-31T05:23:26;88.20;;;40.65;;
13255;SDS011;37913;48.370;10.930;2023-07-31T05:25:54;91.80;;;40.85;;
13255;SDS011;37913;48.370;10.930;2023-07-31T05:28:21;84.13;;;39.45;;
13255;SDS011;37913;48.370;10.930;2023-07-31T05:30:48;87.43;;;39.80;;
13255;SDS011;37913;48.370;10.930;2023-07-31T05:33:15;97.43;;;42.00;;
13255;SDS011;37913;48.370;10.930;2023-07-31T05:35:42;85.28;;;40.22;;
13255;SDS011;37913;48.370;10.930;2023-07-31T05:38:09;79.55;;;38.67;;
13255;SDS011;37913;48.370;10.930;2023-07-31T05:40:36;79.50;;;38.60;;
13255;SDS011;37913;48.370;10.930;2023-07-31T05:43:05;84.55;;;39.65;;
13255;SDS011;37913;48.370;10.930;2023-07-31T05:45:33;88.18;;;40.90;;
13255;SDS011;37913;48.370;10.930;2023-07-31T05:48:00;76.90;;;37.85;;
13255;SDS011;37913;48.370;10.930;2023-07-31T05:50:31;94.10;;;41.72;;
13255;SDS011;37913;48.370;10.930;2023-07-31T05:52:59;78.20;;;38.72;;
13255;SDS011;37913;48.370;10.930;2023-07-31T05:55:31;83.72;;;39.35;;
13255;SDS011;37913;48.370;10.930;2023-07-31T05:57:58;88.55;;;40.25;;
13255;SDS011;37913;48.370;10.930;2023-07-31T06:00:26;81.72;;;39.63;;
13255;SDS011;37913;48.370;10.930;2023-07-31T06:03:00;74.65;;;38.10;;
13255;SDS011;37913;48.370;10.930;2023-07-31T06:05:27;84.03;;;39.30;;
13255;SDS011;37913;48.370;10.930;2023-07-31T06:07:55;83.72;;;39.67;;
13255;SDS011;37913;48.370;10.930;2023-07-31T06:10:23;81.28;;;39.60;;
13255;SDS011;37913;48.370;10.930;2023-07-31T06:12:49;86.95;;;40.55;;
13255;SDS011;37913;48.370;10.930;2023-07-31T06:15:16;79.18;;;38.72;;
13255;SDS011;37913;48.370;10.930;2023-07-31T06:17:45;82.03;;;39.65;;
13255;SDS011;37913;48.370;10.930;2023-07-31T06:20:12;79.38;;;39.22;;
13255;SDS011;37913;48.370;10.930;2023-07-31T06:22:41;85.80;;;40.97;;
13255;SDS011;37913;48.370;10.930;2023-07-31T06:25:09;88.60;;;41.53;;
13255;SDS011;37913;48.370;10.930;2023-07-31T06:27:46;86.88;;;41.28;;
13255;SDS011;37913;48.370;10.930;2023-07-31T06:30:12;82.43;;;40.40;;
13255;SDS011;37913;48.370;10.930;2023-07-31T06:32:39;80.45;;;40.15;;
13255;SDS011;37913;48.370;10.930;2023-07-31T06:35:08;89.93;;;41.67;;
13255;SDS011;37913;48.370;10.930;2023-07-31T06:37:35;91.78;;;41.95;;
13255;SDS011;37913;48.370;10.930;2023-07-31T06:40:02;96.10;;;43.75;;
13255;SDS011;37913;48.370;10.930;2023-07-31T06:42:33;75.40;;;38.95;;
13255;SDS011;37913;48.370;10.930;2023-07-31T06:45:01;79.80;;;39.97;;
13255;SDS011;37913;48.370;10.930;2023-07-31T06:47:28;80.85;;;41.00;;
13255;SDS011;37913;48.370;10.930;2023-07-31T06:49:57;79.95;;;40.53;;
13255;SDS011;37913;48.370;10.930;2023-07-31T06:52:25;75.38;;;40.08;;
13255;SDS011;37913;48.370;10.930;2023-07-31T06:55:00;85.32;;;42.10;;
13255;SDS011;37913;48.370;10.930;2023-07-31T07:02:43;77.72;;;40.90;;
13255;SDS011;37913;48.370;10.930;2023-07-31T07:05:12;84.72;;;42.35;;
13255;SDS011;37913;48.370;10.930;2023-07-31T07:07:41;85.13;;;43.05;;
13255;SDS011;37913;48.370;10.930;2023-07-31T07:15:43;82.50;;;43.25;;
13255;SDS011;37913;48.370;10.930;2023-07-31T07:20:58;88.57;;;45.28;;
13255;SDS011;37913;48.370;10.930;2023-07-31T07:23:31;94.82;;;46.10;;
13255;SDS011;37913;48.370;10.930;2023-07-31T07:28:37;86.93;;;45.38;;
13255;SDS011;37913;48.370;10.930;2023-07-31T07:31:17;85.75;;;44.85;;
13255;SDS011;37913;48.370;10.930;2023-07-31T07:33:50;84.25;;;44.33;;
13255;SDS011;37913;48.370;10.930;2023-07-31T07:36:28;81.82;;;44.15;;
13255;SDS011;37913;48.370;10.930;2023-07-31T07:41:33;90.45;;;45.97;;
13255;SDS011;37913;48.370;10.930;2023-07-31T07:44:18;91.25;;;46.63;;
13255;SDS011;37913;48.370;10.930;2023-07-31T07:46:57;84.47;;;44.72;;
13255;SDS011;37913;48.370;10.930;2023-07-31T07:49:37;86.47;;;45.47;;
13255;SDS011;37913;48.370;10.930;2023-07-31T07:52:06;86.82;;;44.78;;
13255;SDS011;37913;48.370;10.930;2023-07-31T07:54:43;81.88;;;43.63;;
13255;SDS011;37913;48.370;10.930;2023-07-31T07:57:10;88.53;;;45.10;;
13255;SDS011;37913;48.370;10.930;2023-07-31T07:59:37;83.28;;;43.83;;
13255;SDS011;37913;48.370;10.930;2023-07-31T08:02:05;80.28;;;43.30;;
13255;SDS011;37913;48.370;10.930;2023-07-31T08:04:40;81.78;;;43.83;;
13255;SDS011;37913;48.370;10.930;2023-07-31T08:07:10;75.20;;;41.47;;
13255;SDS011;37913;48.370;10.930;2023-07-31T08:09:37;87.93;;;45.45;;
13255;SDS011;37913;48.370;10.930;2023-07-31T08:12:24;79.30;;;43.53;;
13255;SDS011;37913;48.370;10.930;2023-07-31T08:15:01;77.68;;;42.67;;
13255;SDS011;37913;48.370;10.930;2023-07-31T08:17:28;83.40;;;44.03;;
13255;SDS011;37913;48.370;10.930;2023-07-31T08:20:05;86.75;;;43.53;;
13255;SDS011;37913;48.370;10.930;2023-07-31T08:22:34;91.13;;;44.78;;
13255;SDS011;37913;48.370;10.930;2023-07-31T08:25:02;85.10;;;43.33;;
13255;SDS011;37913;48.370;10.930;2023-07-31T08:27:34;80.80;;;42.47;;
13255;SDS011;37913;48.370;10.930;2023-07-31T08:30:00;98.28;;;46.55;;
13255;SDS011;37913;48.370;10.930;2023-07-31T08:32:32;89.18;;;44.15;;
13255;SDS011;37913;48.370;10.930;2023-07-31T08:35:14;83.15;;;43.30;;
13255;SDS011;37913;48.370;10.930;2023-07-31T08:37:46;80.18;;;42.80;;
13255;SDS011;37913;48.370;10.930;2023-07-31T08:40:17;81.47;;;43.45;;
13255;SDS011;37913;48.370;10.930;2023-07-31T08:42:45;74.10;;;42.70;;
13255;SDS011;37913;48.370;10.930;2023-07-31T08:45:23;85.68;;;46.50;;
13255;SDS011;37913;48.370;10.930;2023-07-31T08:50:26;87.95;;;48.80;;
13255;SDS011;37913;48.370;10.930;2023-07-31T08:52:55;99.70;;;51.38;;
13255;SDS011;37913;48.370;10.930;2023-07-31T08:55:22;81.68;;;47.50;;
13255;SDS011;37913;48.370;10.930;2023-07-31T08:57:51;81.95;;;47.65;;
13255;SDS011;37913;48.370;10.930;2023-07-31T09:00:19;85.22;;;48.58;;
13255;SDS011;37913;48.370;10.930;2023-07-31T09:02:51;81.00;;;48.05;;
13255;SDS011;37913;48.370;10.930;2023-07-31T09:05:32;87.35;;;49.58;;
13255;SDS011;37913;48.370;10.930;2023-07-31T09:08:09;90.03;;;48.58;;
13255;SDS011;37913;48.370;10.930;2023-07-31T09:10:40;88.07;;;49.03;;
13255;SDS011;37913;48.370;10.930;2023-07-31T09:13:10;96.30;;;51.30;;
13255;SDS011;37913;48.370;10.930;2023-07-31T09:15:38;83.38;;;49.38;;
13255;SDS011;37913;48.370;10.930;2023-07-31T09:18:07;90.38;;;50.85;;
13255;SDS011;37913;48.370;10.930;2023-07-31T09:20:34;96.63;;;53.70;;
13255;SDS011;37913;48.370;10.930;2023-07-31T09:23:06;92.15;;;54.80;;
13255;SDS011;37913;48.370;10.930;2023-07-31T09:25:35;84.05;;;55.13;;
13255;SDS011;37913;48.370;10.930;2023-07-31T09:28:04;93.40;;;57.90;;
13255;SDS011;37913;48.370;10.930;2023-07-31T09:30:42;87.20;;;55.88;;
13255;SDS011;37913;48.370;10.930;2023-07-31T09:33:12;91.50;;;57.95;;
13255;SDS011;37913;48.370;10.930;2023-07-31T09:35:39;98.18;;;60.45;;
13255;SDS011;37913;48.370;10.930;2023-07-31T09:38:08;90.85;;;60.95;;
13255;SDS011;37913;48.370;10.930;2023-07-31T09:40:36;95.38;;;66.28;;
13255;SDS011;37913;48.370;10.930;2023-07-31T09:43:07;97.72;;;69.18;;
13255;SDS011;37913;48.370;10.930;2023-07-31T09:45:37;90.05;;;63.03;;
13255;SDS011;37913;48.370;10.930;2023-07-31T09:48:06;93.22;;;60.38;;
13255;SDS011;37913;48.370;10.930;2023-07-31T09:50:34;92.53;;;58.72;;
13255;SDS011;37913;48.370;10.930;2023-07-31T09:53:08;95.47;;;57.28;;
13255;SDS011;37913;48.370;10.930;2023-07-31T09:55:37;91.75;;;56.53;;
13255;SDS011;37913;48.370;10.930;2023-07-31T09:58:04;123.53;;;67.40;;
13255;SDS011;37913;48.370;10.930;2023-07-31T10:00:35;108.20;;;68.80;;
13255;SDS011;37913;48.370;10.930;2023-07-31T10:03:13;92.72;;;70.47;;
13255;SDS011;37913;48.370;10.930;2023-07-31T10:05:43;98.80;;;74.60;;
13255;SDS011;37913;48.370;10.930;2023-07-31T10:08:23;97.25;;;77.97;;
13255;SDS011;37913;48.370;10.930;2023-07-31T10:11:00;104.35;;;80.18;;
13255;SDS011;37913;48.370;10.930;2023-07-31T10:13:29;100.95;;;77.90;;
13255;SDS011;37913;48.370;10.930;2023-07-31T10:15:58;87.55;;;71.60;;
13255;SDS011;37913;48.370;10.930;2023-07-31T10:18:32;92.20;;;71.88;;
13255;SDS011;37913;48.370;10.930;2023-07-31T10:21:00;100.05;;;75.50;;
13255;SDS011;37913;48.370;10.930;2023-07-31T10:23:27;100.95;;;74.43;;
13255;SDS011;37913;48.370;10.930;2023-07-31T10:25:56;90.38;;;73.72;;
13255;SDS011;37913;48.370;10.930;2023-07-31T10:28:26;89.38;;;74.88;;
13255;SDS011;37913;48.370;10.930;2023-07-31T10:30:53;95.22;;;68.57;;
13255;SDS011;37913;48.370;10.930;2023-07-31T10:33:22;96.13;;;64.00;;
13255;SDS011;37913;48.370;10.930;2023-07-31T10:35:50;99.32;;;65.93;;
13255;SDS011;37913;48.370;10.930;2023-07-31T10:38:37;99.80;;;68.40;;
13255;SDS011;37913;48.370;10.930;2023-07-31T10:41:07;95.00;;;69.90;;
13255;SDS011;37913;48.370;10.930;2023-07-31T10:43:35;102.93;;;73.35;;
13255;SDS011;37913;48.370;10.930;2023-07-31T10:46:06;98.70;;;73.57;;
13255;SDS011;37913;48.370;10.930;2023-07-31T10:48:36;95.22;;;66.38;;
13255;SDS011;37913;48.370;10.930;2023-07-31T10:51:07;105.28;;;67.43;;
13255;SDS011;37913;48.370;10.930;2023-07-31T10:53:37;106.45;;;70.25;;
13255;SDS011;37913;48.370;10.930;2023-07-31T10:56:11;94.70;;;71.03;;
13255;SDS011;37913;48.370;10.930;2023-07-31T10:58:43;94.30;;;73.13;;
13255;SDS011;37913;48.370;10.930;2023-07-31T11:01:11;116.07;;;84.13;;
13255;SDS011;37913;48.370;10.930;2023-07-31T11:03:43;86.88;;;77.60;;
13255;SDS011;37913;48.370;10.930;2023-07-31T11:06:12;115.80;;;82.75;;
13255;SDS011;37913;48.370;10.930;2023-07-31T11:08:43;93.13;;;72.25;;
13255;SDS011;37913;48.370;10.930;2023-07-31T11:11:12;104.90;;;75.18;;
13255;SDS011;37913;48.370;10.930;2023-07-31T11:13:40;101.60;;;72.85;;
13255;SDS011;37913;48.370;10.930;2023-07-31T11:16:09;106.80;;;72.03;;
13255;SDS011;37913;48.370;10.930;2023-07-31T11:18:38;94.63;;;67.32;;
13255;SDS011;37913;48.370;10.930;2023-07-31T11:21:08;119.47;;;74.10;;
13255;SDS011;37913;48.370;10.930;2023-07-31T11:23:38;107.90;;;75.82;;
13255;SDS011;37913;48.370;10.930;2023-07-31T11:26:05;120.93;;;83.10;;
13255;SDS011;37913;48.370;10.930;2023-07-31T11:28:33;97.90;;;80.07;;
13255;SDS011;37913;48.370;10.930;2023-07-31T11:31:00;97.68;;;81.20;;
13255;SDS011;37913;48.370;10.930;2023-07-31T11:33:28;121.93;;;89.22;;
13255;SDS011;37913;48.370;10.930;2023-07-31T11:35:55;105.78;;;82.60;;
13255;SDS011;37913;48.370;10.930;2023-07-31T11:38:24;101.55;;;70.50;;
13255;SDS011;37913;48.370;10.930;2023-07-31T11:40:51;93.22;;;64.80;;
13255;SDS011;37913;48.370;10.930;2023-07-31T11:43:19;99.20;;;69.03;;
13255;SDS011;37913;48.370;10.930;2023-07-31T11:45:47;104.45;;;79.05;;
13255;SDS011;37913;48.370;10.930;2023-07-31T11:48:18;102.88;;;78.90;;
13255;SDS011;37913;48.370;10.930;2023-07-31T11:50:47;114.00;;;84.63;;
13255;SDS011;37913;48.370;10.930;2023-07-31T11:53:16;104.82;;;87.40;;
13255;SDS011;37913;48.370;10.930;2023-07-31T11:55:46;98.95;;;86.55;;
13255;SDS011;37913;48.370;10.930;2023-07-31T11:58:14;101.82;;;91.38;;
13255;SDS011;37913;48.370;10.930;2023-07-31T12:00:42;105.65;;;94.85;;
13255;SDS011;37913;48.370;10.930;2023-07-31T12:03:09;105.28;;;91.78;;
13255;SDS011;37913;48.370;10.930;2023-07-31T12:05:37;102.32;;;88.97;;
13255;SDS011;37913;48.370;10.930;2023-07-31T12:08:08;107.13;;;88.50;;
13255;SDS011;37913;48.370;10.930;2023-07-31T12:10:38;95.05;;;78.85;;
13255;SDS011;37913;48.370;10.930;2023-07-31T12:13:07;98.90;;;75.63;;
13255;SDS011;37913;48.370;10.930;2023-07-31T12:15:39;98.90;;;76.88;;
13255;SDS011;37913;48.370;10.930;2023-07-31T12:18:08;98.32;;;82.15;;
13255;SDS011;37913;48.370;10.930;2023-07-31T12:20:39;97.25;;;81.85;;
13255;SDS011;37913;48.370;10.930;2023-07-31T12:23:12;108.68;;;80.68;;
13255;SDS011;37913;48.370;10.930;2023-07-31T12:25:40;103.13;;;76.32;;
13255;SDS011;37913;48.370;10.930;2023-07-31T12:28:08;98.90;;;69.72;;
13255;SDS011;37913;48.370;10.930;2023-07-31T12:30:39;100.57;;;65.07;;
13255;SDS011;37913;48.370;10.930;2023-07-31T12:33:07;99.72;;;63.50;;
13255;SDS011;37913;48.370;10.930;2023-07-31T12:35:40;89.07;;;61.85;;
13255;SDS011;37913;48.370;10.930;2023-07-31T12:38:11;108.50;;;66.57;;
13255;SDS011;37913;48.370;10.930;2023-07-31T12:40:38;102.43;;;62.70;;
13255;SDS011;37913;48.370;10.930;2023-07-31T12:43:09;106.60;;;61.72;;
13255;SDS011;37913;48.370;10.930;2023-07-31T12:45:36;102.15;;;59.67;;
13255;SDS011;37913;48.370;10.930;2023-07-31T12:48:03;93.40;;;57.70;;
13255;SDS011;37913;48.370;10.930;2023-07-31T12:50:30;89.82;;;56.35;;
13255;SDS011;37913;48.370;10.930;2023-07-31T12:52:57;97.20;;;57.75;;
13255;SDS011;37913;48.370;10.930;2023-07-31T12:55:24;93.22;;;57.42;;
13255;SDS011;37913;48.370;10.930;2023-07-31T12:57:57;93.05;;;56.35;;
13255;SDS011;37913;48.370;10.930;2023-07-31T13:00:25;111.30;;;61.95;;
13255;SDS011;37913;48.370;10.930;2023-07-31T13:02:53;89.78;;;57.65;;
13255;SDS011;37913;48.370;10.930;2023-07-31T13:05:20;92.20;;;58.05;;
13255;SDS011;37913;48.370;10.930;2023-07-31T13:07:47;91.28;;;57.97;;
13255;SDS011;37913;48.370;10.930;2023-07-31T13:10:14;96.97;;;58.40;;
13255;SDS011;37913;48.370;10.930;2023-07-31T13:12:41;93.10;;;56.83;;
13255;SDS011;37913;48.370;10.930;2023-07-31T13:15:08;93.75;;;55.28;;
13255;SDS011;37913;48.370;10.930;2023-07-31T13:17:37;100.18;;;55.20;;
13255;SDS011;37913;48.370;10.930;2023-07-31T13:20:04;98.80;;;53.35;;
13255;SDS011;37913;48.370;10.930;2023-07-31T13:22:32;98.88;;;52.22;;
13255;SDS011;37913;48.370;10.930;2023-07-31T13:24:59;90.03;;;50.05;;
13255;SDS011;37913;48.370;10.930;2023-07-31T13:27:26;84.68;;;48.30;;
13255;SDS011;37913;48.370;10.930;2023-07-31T13:29:53;80.75;;;47.50;;
13255;SDS011;37913;48.370;10.930;2023-07-31T13:32:21;96.05;;;52.83;;
13255;SDS011;37913;48.370;10.930;2023-07-31T13:34:49;97.38;;;55.28;;
13255;SDS011;37913;48.370;10.930;2023-07-31T13:37:17;94.30;;;57.10;;
13255;SDS011;37913;48.370;10.930;2023-07-31T13:39:44;87.22;;;56.58;;
13255;SDS011;37913;48.370;10.930;2023-07-31T13:42:11;98.60;;;60.05;;
13255;SDS011;37913;48.370;10.930;2023-07-31T13:44:39;83.20;;;57.55;;
13255;SDS011;37913;48.370;10.930;2023-07-31T13:47:06;104.85;;;62.15;;
13255;SDS011;37913;48.370;10.930;2023-07-31T13:49:34;112.40;;;64.15;;
13255;SDS011;37913;48.370;10.930;2023-07-31T13:52:05;99.97;;;60.55;;
13255;SDS011;37913;48.370;10.930;2023-07-31T13:54:32;82.75;;;54.53;;
13255;SDS011;37913;48.370;10.930;2023-07-31T13:57:02;92.78;;;55.63;;
13255;SDS011;37913;48.370;10.930;2023-07-31T13:59:29;79.88;;;50.58;;
13255;SDS011;37913;48.370;10.930;2023-07-31T14:01:56;85.90;;;50.00;;
13255;SDS011;37913;48.370;10.930;2023-07-31T14:04:25;97.70;;;52.88;;
13255;SDS011;37913;48.370;10.930;2023-07-31T14:06:52;83.80;;;47.83;;
13255;SDS011;37913;48.370;10.930;2023-07-31T14:09:21;90.35;;;48.17;;
13255;SDS011;37913;48.370;10.930;2023-07-31T14:11:48;85.20;;;46.38;;
13255;SDS011;37913;48.370;10.930;2023-07-31T14:14:16;102.10;;;50.85;;
13255;SDS011;37913;48.370;10.930;2023-07-31T14:16:44;78.80;;;45.60;;
13255;SDS011;37913;48.370;10.930;2023-07-31T14:19:11;85.35;;;47.30;;
13255;SDS011;37913;48.370;10.930;2023-07-31T14:21:38;94.65;;;49.40;;
13255;SDS011;37913;48.370;10.930;2023-07-31T14:24:05;93.53;;;49.15;;
13255;SDS011;37913;48.370;10.930;2023-07-31T14:26:34;90.93;;;48.13;;
13255;SDS011;37913;48.370;10.930;2023-07-31T14:29:01;101.00;;;50.47;;
13255;SDS011;37913;48.370;10.930;2023-07-31T14:31:28;86.50;;;47.45;;
13255;SDS011;37913;48.370;10.930;2023-07-31T14:33:55;99.25;;;49.35;;
13255;SDS011;37913;48.370;10.930;2023-07-31T14:36:22;99.97;;;47.83;;
13255;SDS011;37913;48.370;10.930;2023-07-31T14:38:49;95.20;;;48.08;;
13255;SDS011;37913;48.370;10.930;2023-07-31T14:41:18;82.38;;;45.47;;
13255;SDS011;37913;48.370;10.930;2023-07-31T14:43:46;92.68;;;47.53;;